sensor_id;sensor_type;location;lat;lon;timestamp;pressure;altitude;pressure_sealevel;temperature;humidity
7168;BME280;3625;51.762;14.320;2023-03-23T00:02:25;99882.44;;;11.82;79.07
7168;BME280;3625;51.762;14.320;2023-03-23T00:04:53;99883.25;;;11.84;79.21
7168;BME280;3625;51.762;14.320;2023-03-23T00:07:22;99883.94;;;11.89;79.14
7168;BME280;3625;51.762;14.320;2023-03-23T00:09:54;99874.22;;;11.90;78.83
7168;BME280;3625;51.762;14.320;2023-03-23T00:12:23;99874.16;;;11.91;78.76
7168;BME280;3625;51.762;14.320;2023-03-23T00:14:59;99875.03;;;11.92;78.11
7168;BME280;3625;51.762;14.320;2023-03-23T00:17:29;99871.38;;;11.94;78.01
7168;BME280;3625;51.762;14.320;2023-03-23T00:19:59;99873.13;;;11.95;77.95
7168;BME280;3625;51.762;14.320;2023-03-23T00:22:28;99867.75;;;11.97;77.82
7168;BME280;3625;51.762;14.320;2023-03-23T00:24:56;99864.94;;;12.01;77.22
7168;BME280;3625;51.762;14.320;2023-03-23T00:27:24;99863.91;;;12.05;77.59
7168;BME280;3625;51.762;14.320;2023-03-23T00:29:52;99862.00;;;12.09;77.18
7168;BME280;3625;51.762;14.320;2023-03-23T00:32:20;99860.94;;;12.13;77.18
7168;BME280;3625;51.762;14.320;2023-03-23T00:34:55;99869.63;;;12.18;76.80
7168;BME280;3625;51.762;14.320;2023-03-23T00:37:25;99862.63;;;12.16;76.81
7168;BME280;3625;51.762;14.320;2023-03-23T00:39:53;99854.78;;;12.13;76.54
7168;BME280;3625;51.762;14.320;2023-03-23T00:42:24;99857.56;;;12.09;76.71
7168;BME280;3625;51.762;14.320;2023-03-23T00:44:53;99854.91;;;12.09;76.51
7168;BME280;3625;51.762;14.320;2023-03-23T00:47:26;99822.19;;;11.87;77.01
7168;BME280;3625;51.762;14.320;2023-03-23T00:49:55;99844.41;;;12.06;76.89
7168;BME280;3625;51.762;14.320;2023-03-23T00:52:23;99847.03;;;12.08;76.91
7168;BME280;3625;51.762;14.320;2023-03-23T00:54:51;99845.28;;;12.07;77.09
7168;BME280;3625;51.762;14.320;2023-03-23T00:57:19;99839.97;;;12.07;76.91
7168;BME280;3625;51.762;14.320;2023-03-23T00:59:50;99834.84;;;12.02;77.19
7168;BME280;3625;51.762;14.320;2023-03-23T01:02:18;99835.03;;;11.98;77.71
7168;BME280;3625;51.762;14.320;2023-03-23T01:04:50;99826.25;;;11.96;78.19
7168;BME280;3625;51.762;14.320;2023-03-23T01:07:20;99826.31;;;11.94;78.03
7168;BME280;3625;51.762;14.320;2023-03-23T01:09:50;99826.31;;;11.94;78.34
7168;BME280;3625;51.762;14.320;2023-03-23T01:12:20;99806.22;;;11.89;78.51
7168;BME280;3625;51.762;14.320;2023-03-23T01:14:50;99820.03;;;11.97;78.23
7168;BME280;3625;51.762;14.320;2023-03-23T01:17:18;99813.00;;;11.96;78.66
7168;BME280;3625;51.762;14.320;2023-03-23T01:19:47;99813.00;;;11.96;78.72
7168;BME280;3625;51.762;14.320;2023-03-23T01:22:15;99811.28;;;11.95;78.77
7168;BME280;3625;51.762;14.320;2023-03-23T01:24:44;99804.25;;;11.94;78.67
7168;BME280;3625;51.762;14.320;2023-03-23T01:27:12;99806.22;;;11.89;79.03
7168;BME280;3625;51.762;14.320;2023-03-23T01:29:39;99808.06;;;11.87;79.17
7168;BME280;3625;51.762;14.320;2023-03-23T01:32:07;99793.84;;;11.89;79.36
7168;BME280;3625;51.762;14.320;2023-03-23T01:34:36;99786.63;;;11.93;79.33
7168;BME280;3625;51.762;14.320;2023-03-23T01:37:04;99721.56;;;11.61;79.16
7168;BME280;3625;51.762;14.320;2023-03-23T01:39:32;99779.88;;;12.07;78.53
7168;BME280;3625;51.762;14.320;2023-03-23T01:42:01;99780.84;;;12.05;78.05
7168;BME280;3625;51.762;14.320;2023-03-23T01:47:34;99775.09;;;11.94;78.93
7168;BME280;3625;51.762;14.320;2023-03-23T01:50:02;99789.19;;;11.94;79.25
7168;BME280;3625;51.762;14.320;2023-03-23T01:52:30;99784.59;;;11.99;79.11
7168;BME280;3625;51.762;14.320;2023-03-23T01:55:03;99785.22;;;12.06;78.63
7168;BME280;3625;51.762;14.320;2023-03-23T01:57:34;99787.31;;;12.20;78.42
7168;BME280;3625;51.762;14.320;2023-03-23T02:00:05;99785.66;;;12.39;77.15
7168;BME280;3625;51.762;14.320;2023-03-23T02:02:41;99780.91;;;12.47;75.96
7168;BME280;3625;51.762;14.320;2023-03-23T02:05:13;99771.00;;;12.52;75.22
7168;BME280;3625;51.762;14.320;2023-03-23T02:07:44;99773.50;;;12.55;75.56
7168;BME280;3625;51.762;14.320;2023-03-23T02:10:12;99776.97;;;12.57;75.31
7168;BME280;3625;51.762;14.320;2023-03-23T02:12:41;99773.50;;;12.55;75.43
7168;BME280;3625;51.762;14.320;2023-03-23T02:15:11;99768.19;;;12.55;75.60
7168;BME280;3625;51.762;14.320;2023-03-23T02:17:48;99770.78;;;12.57;74.87
7168;BME280;3625;51.762;14.320;2023-03-23T02:20:33;99781.28;;;12.60;75.23
7168;BME280;3625;51.762;14.320;2023-03-23T02:23:24;99774.03;;;12.63;74.25
7168;BME280;3625;51.762;14.320;2023-03-23T02:26:04;99773.34;;;12.60;74.27
7168;BME280;3625;51.762;14.320;2023-03-23T02:28:53;99772.41;;;12.39;75.11
7168;BME280;3625;51.762;14.320;2023-03-23T02:31:47;99777.53;;;12.22;75.84
7168;BME280;3625;51.762;14.320;2023-03-23T02:34:29;99767.59;;;12.05;76.48
7168;BME280;3625;51.762;14.320;2023-03-23T02:37:02;99765.19;;;11.99;76.73
7168;BME280;3625;51.762;14.320;2023-03-23T02:39:34;99766.88;;;12.01;76.89
7168;BME280;3625;51.762;14.320;2023-03-23T02:42:07;99761.91;;;11.92;77.08
7168;BME280;3625;51.762;14.320;2023-03-23T02:44:40;99757.88;;;11.82;77.34
7168;BME280;3625;51.762;14.320;2023-03-23T02:47:15;99761.72;;;11.73;78.28
7168;BME280;3625;51.762;14.320;2023-03-23T02:49:48;99762.63;;;11.72;78.49
7168;BME280;3625;51.762;14.320;2023-03-23T02:52:40;99760.84;;;11.73;78.63
7168;BME280;3625;51.762;14.320;2023-03-23T02:55:27;99757.94;;;11.81;78.22
7168;BME280;3625;51.762;14.320;2023-03-23T02:58:01;99754.53;;;11.77;78.07
7168;BME280;3625;51.762;14.320;2023-03-23T03:00:29;99753.16;;;11.67;78.15
7168;BME280;3625;51.762;14.320;2023-03-23T03:02:59;99752.53;;;11.59;78.79
7168;BME280;3625;51.762;14.320;2023-03-23T03:05:37;99753.59;;;11.55;78.65
7168;BME280;3625;51.762;14.320;2023-03-23T03:08:25;99746.63;;;11.52;78.53
7168;BME280;3625;51.762;14.320;2023-03-23T03:11:03;99749.66;;;11.42;79.03
7168;BME280;3625;51.762;14.320;2023-03-23T03:13:41;99746.19;;;11.41;79.47
7168;BME280;3625;51.762;14.320;2023-03-23T03:16:19;99741.66;;;11.43;79.56
7168;BME280;3625;51.762;14.320;2023-03-23T03:18:56;99743.44;;;11.43;79.52
7168;BME280;3625;51.762;14.320;2023-03-23T03:21:32;99729.88;;;11.28;79.42
7168;BME280;3625;51.762;14.320;2023-03-23T03:24:02;99747.63;;;11.25;80.02
7168;BME280;3625;51.762;14.320;2023-03-23T03:26:32;99732.84;;;11.19;79.86
7168;BME280;3625;51.762;14.320;2023-03-23T03:29:29;99725.78;;;11.20;80.67
7168;BME280;3625;51.762;14.320;2023-03-23T03:32:20;99734.41;;;11.25;80.79
7168;BME280;3625;51.762;14.320;2023-03-23T03:34:51;99738.22;;;11.41;80.50
7168;BME280;3625;51.762;14.320;2023-03-23T03:37:21;99742.75;;;11.61;79.42
7168;BME280;3625;51.762;14.320;2023-03-23T03:39:50;99734.41;;;11.71;78.80
7168;BME280;3625;51.762;14.320;2023-03-23T03:42:19;99735.06;;;11.78;78.34
7168;BME280;3625;51.762;14.320;2023-03-23T03:44:47;99732.25;;;11.83;77.91
7168;BME280;3625;51.762;14.320;2023-03-23T03:47:15;99728.53;;;11.87;77.38
7168;BME280;3625;51.762;14.320;2023-03-23T03:49:42;99728.50;;;11.88;77.52
7168;BME280;3625;51.762;14.320;2023-03-23T03:52:10;99727.56;;;11.89;77.06
7168;BME280;3625;51.762;14.320;2023-03-23T03:54:43;99720.28;;;11.94;75.24
7168;BME280;3625;51.762;14.320;2023-03-23T03:57:11;99725.59;;;11.94;75.18
7168;BME280;3625;51.762;14.320;2023-03-23T03:59:57;99720.38;;;11.93;75.20
7168;BME280;3625;51.762;14.320;2023-03-23T04:02:50;99714.25;;;11.91;75.11
7168;BME280;3625;51.762;14.320;2023-03-23T04:05:34;99722.38;;;11.86;74.44
7168;BME280;3625;51.762;14.320;2023-03-23T04:08:04;99720.66;;;11.85;74.90
7168;BME280;3625;51.762;14.320;2023-03-23T04:10:33;99718.94;;;11.84;74.49
7168;BME280;3625;51.762;14.320;2023-03-23T04:13:02;99713.44;;;11.89;73.70
7168;BME280;3625;51.762;14.320;2023-03-23T04:16:03;99725.78;;;11.90;73.77
7168;BME280;3625;51.762;14.320;2023-03-23T04:18:33;99727.56;;;11.89;73.99
7168;BME280;3625;51.762;14.320;2023-03-23T04:21:02;99717.16;;;11.85;73.41
7168;BME280;3625;51.762;14.320;2023-03-23T04:23:31;99704.63;;;11.88;73.54
7168;BME280;3625;51.762;14.320;2023-03-23T04:26:04;99696.53;;;11.93;73.66
7168;BME280;3625;51.762;14.320;2023-03-23T04:28:38;99698.72;;;12.03;72.63
7168;BME280;3625;51.762;14.320;2023-03-23T04:31:26;99697.44;;;12.14;72.56
7168;BME280;3625;51.762;14.320;2023-03-23T04:34:03;99697.06;;;12.23;72.17
7168;BME280;3625;51.762;14.320;2023-03-23T04:36:37;99694.88;;;12.32;70.83
7168;BME280;3625;51.762;14.320;2023-03-23T04:39:12;99687.53;;;12.39;70.75
7168;BME280;3625;51.762;14.320;2023-03-23T04:41:42;99688.13;;;12.45;70.70
7168;BME280;3625;51.762;14.320;2023-03-23T04:44:18;99681.84;;;12.48;70.67
7168;BME280;3625;51.762;14.320;2023-03-23T04:47:01;99698.44;;;12.53;69.78
7168;BME280;3625;51.762;14.320;2023-03-23T04:49:33;99685.88;;;12.57;68.92
7168;BME280;3625;51.762;14.320;2023-03-23T04:52:23;99691.94;;;12.60;69.36
7168;BME280;3625;51.762;14.320;2023-03-23T04:54:55;99687.34;;;12.64;69.01
7168;BME280;3625;51.762;14.320;2023-03-23T04:57:25;99690.63;;;12.70;68.19
7168;BME280;3625;51.762;14.320;2023-03-23T05:00:13;99681.47;;;12.77;67.92
7168;BME280;3625;51.762;14.320;2023-03-23T05:02:48;99680.25;;;12.84;66.52
7168;BME280;3625;51.762;14.320;2023-03-23T05:05:21;99690.75;;;12.88;65.99
7168;BME280;3625;51.762;14.320;2023-03-23T05:07:52;99698.56;;;12.91;66.13
7168;BME280;3625;51.762;14.320;2023-03-23T05:10:24;99692.25;;;12.93;65.90
7168;BME280;3625;51.762;14.320;2023-03-23T05:12:57;99686.81;;;12.96;64.88
7168;BME280;3625;51.762;14.320;2023-03-23T05:15:24;99678.75;;;12.98;65.75
7168;BME280;3625;51.762;14.320;2023-03-23T05:17:52;99681.41;;;12.98;65.69
7168;BME280;3625;51.762;14.320;2023-03-23T05:20:22;99685.03;;;12.97;65.89
7168;BME280;3625;51.762;14.320;2023-03-23T05:22:57;99692.84;;;13.00;65.75
7168;BME280;3625;51.762;14.320;2023-03-23T05:25:33;99690.06;;;13.03;66.08
7168;BME280;3625;51.762;14.320;2023-03-23T05:28:10;99678.34;;;13.07;65.88
7168;BME280;3625;51.762;14.320;2023-03-23T05:30:40;99680.81;;;13.11;65.47
7168;BME280;3625;51.762;14.320;2023-03-23T05:33:11;99687.63;;;13.18;64.45
7168;BME280;3625;51.762;14.320;2023-03-23T05:35:46;99697.09;;;13.24;64.76
7168;BME280;3625;51.762;14.320;2023-03-23T05:38:17;99700.25;;;13.32;64.71
7168;BME280;3625;51.762;14.320;2023-03-23T05:40:45;99695.38;;;13.42;63.86
7168;BME280;3625;51.762;14.320;2023-03-23T05:43:21;99689.59;;;13.52;62.24
7168;BME280;3625;51.762;14.320;2023-03-23T05:46:08;99694.47;;;13.62;62.74
7168;BME280;3625;51.762;14.320;2023-03-23T05:48:37;99701.22;;;13.69;62.73
7168;BME280;3625;51.762;14.320;2023-03-23T05:51:10;99694.53;;;13.79;61.41
7168;BME280;3625;51.762;14.320;2023-03-23T05:53:41;99702.16;;;13.86;60.69
7168;BME280;3625;51.762;14.320;2023-03-23T05:56:13;99691.13;;;13.94;60.54
7168;BME280;3625;51.762;14.320;2023-03-23T05:59:04;99696.25;;;13.98;60.52
7168;BME280;3625;51.762;14.320;2023-03-23T06:01:35;99701.72;;;13.95;60.93
7168;BME280;3625;51.762;14.320;2023-03-23T06:04:03;99693.09;;;13.90;61.32
7168;BME280;3625;51.762;14.320;2023-03-23T06:06:41;99684.47;;;13.85;61.57
7168;BME280;3625;51.762;14.320;2023-03-23T06:09:10;99690.81;;;13.83;61.82
7168;BME280;3625;51.762;14.320;2023-03-23T06:12:01;99691.50;;;13.86;62.04
7168;BME280;3625;51.762;14.320;2023-03-23T06:14:48;99691.31;;;13.91;62.10
7168;BME280;3625;51.762;14.320;2023-03-23T06:17:22;99697.19;;;13.97;62.13
7168;BME280;3625;51.762;14.320;2023-03-23T06:19:52;99685.06;;;13.92;61.99
7168;BME280;3625;51.762;14.320;2023-03-23T06:22:21;99706.44;;;14.08;61.72
7168;BME280;3625;51.762;14.320;2023-03-23T06:25:07;99699.94;;;14.13;61.77
7168;BME280;3625;51.762;14.320;2023-03-23T06:27:39;99696.84;;;14.22;61.92
7168;BME280;3625;51.762;14.320;2023-03-23T06:30:11;99691.56;;;14.40;61.06
7168;BME280;3625;51.762;14.320;2023-03-23T06:32:38;99682.06;;;14.53;61.12
7168;BME280;3625;51.762;14.320;2023-03-23T06:35:10;99703.34;;;14.70;60.37
7168;BME280;3625;51.762;14.320;2023-03-23T06:38:11;99708.50;;;14.90;59.08
7168;BME280;3625;51.762;14.320;2023-03-23T06:40:57;99716.47;;;15.07;58.75
7168;BME280;3625;51.762;14.320;2023-03-23T06:43:26;99715.75;;;15.21;57.82
7168;BME280;3625;51.762;14.320;2023-03-23T06:46:13;99722.22;;;15.33;57.94
7168;BME280;3625;51.762;14.320;2023-03-23T06:48:40;99737.56;;;15.45;57.14
7168;BME280;3625;51.762;14.320;2023-03-23T06:51:11;99735.47;;;15.34;56.97
7168;BME280;3625;51.762;14.320;2023-03-23T06:53:41;99740.00;;;15.32;57.75
7168;BME280;3625;51.762;14.320;2023-03-23T06:56:12;99738.22;;;15.33;56.67
7168;BME280;3625;51.762;14.320;2023-03-23T06:58:42;99733.19;;;15.44;56.65
7168;BME280;3625;51.762;14.320;2023-03-23T07:01:13;99725.09;;;15.63;55.47
7168;BME280;3625;51.762;14.320;2023-03-23T07:03:51;99736.28;;;16.01;54.83
7168;BME280;3625;51.762;14.320;2023-03-23T07:06:26;99748.75;;;16.00;54.96
7168;BME280;3625;51.762;14.320;2023-03-23T07:08:58;99744.28;;;15.85;54.94
7168;BME280;3625;51.762;14.320;2023-03-23T07:11:28;99758.97;;;15.61;56.18
7168;BME280;3625;51.762;14.320;2023-03-23T07:14:02;99754.25;;;15.48;56.77
7168;BME280;3625;51.762;14.320;2023-03-23T07:16:32;99756.38;;;15.42;57.24
7168;BME280;3625;51.762;14.320;2023-03-23T07:19:00;99762.66;;;15.41;57.55
7168;BME280;3625;51.762;14.320;2023-03-23T07:21:28;99760.53;;;15.47;58.03
7168;BME280;3625;51.762;14.320;2023-03-23T07:23:55;99761.22;;;15.51;57.84
7168;BME280;3625;51.762;14.320;2023-03-23T07:26:38;99767.56;;;15.66;57.25
7168;BME280;3625;51.762;14.320;2023-03-23T07:29:05;99782.56;;;15.84;56.60
7168;BME280;3625;51.762;14.320;2023-03-23T07:31:39;99781.88;;;15.80;55.41
7168;BME280;3625;51.762;14.320;2023-03-23T07:34:07;99773.88;;;15.80;55.75
7168;BME280;3625;51.762;14.320;2023-03-23T07:36:47;99783.44;;;15.84;55.79
7168;BME280;3625;51.762;14.320;2023-03-23T07:39:14;99780.69;;;15.86;55.89
7168;BME280;3625;51.762;14.320;2023-03-23T07:41:43;99786.72;;;15.90;56.40
7168;BME280;3625;51.762;14.320;2023-03-23T07:44:27;99789.91;;;15.96;56.64
7168;BME280;3625;51.762;14.320;2023-03-23T07:46:57;99785.09;;;16.03;57.16
7168;BME280;3625;51.762;14.320;2023-03-23T07:49:31;99800.00;;;16.07;56.92
7168;BME280;3625;51.762;14.320;2023-03-23T07:52:13;99798.78;;;16.12;57.64
7168;BME280;3625;51.762;14.320;2023-03-23T07:54:41;99806.94;;;16.09;57.15
7168;BME280;3625;51.762;14.320;2023-03-23T07:57:24;99812.34;;;15.92;57.56
7168;BME280;3625;51.762;14.320;2023-03-23T07:59:53;99814.16;;;15.92;58.01
7168;BME280;3625;51.762;14.320;2023-03-23T08:02:23;99805.97;;;15.79;58.73
7168;BME280;3625;51.762;14.320;2023-03-23T08:04:57;99824.53;;;15.65;60.02
7168;BME280;3625;51.762;14.320;2023-03-23T08:07:30;99835.56;;;15.57;61.42
7168;BME280;3625;51.762;14.320;2023-03-23T08:10:04;99826.47;;;15.44;63.13
7168;BME280;3625;51.762;14.320;2023-03-23T08:12:34;99832.34;;;15.33;64.36
7168;BME280;3625;51.762;14.320;2023-03-23T08:15:21;99830.22;;;15.23;66.48
7168;BME280;3625;51.762;14.320;2023-03-23T08:18:11;99830.09;;;15.08;68.56
7168;BME280;3625;51.762;14.320;2023-03-23T08:21:01;99822.63;;;14.98;69.49
7168;BME280;3625;51.762;14.320;2023-03-23T08:23:42;99828.28;;;14.92;71.63
7168;BME280;3625;51.762;14.320;2023-03-23T08:26:29;99831.41;;;14.83;73.87
7168;BME280;3625;51.762;14.320;2023-03-23T08:29:32;99839.44;;;14.81;75.17
7168;BME280;3625;51.762;14.320;2023-03-23T08:32:19;99834.47;;;14.92;76.33
7168;BME280;3625;51.762;14.320;2023-03-23T08:35:15;99834.81;;;15.03;76.24
7168;BME280;3625;51.762;14.320;2023-03-23T08:37:54;99840.13;;;15.21;75.83
7168;BME280;3625;51.762;14.320;2023-03-23T08:40:42;99830.69;;;15.31;76.19
7168;BME280;3625;51.762;14.320;2023-03-23T08:43:33;99850.00;;;15.19;76.18
7168;BME280;3625;51.762;14.320;2023-03-23T08:46:20;99844.66;;;15.01;76.89
7168;BME280;3625;51.762;14.320;2023-03-23T08:49:14;99840.72;;;14.91;78.74
7168;BME280;3625;51.762;14.320;2023-03-23T08:52:04;99850.03;;;14.83;80.27
7168;BME280;3625;51.762;14.320;2023-03-23T08:54:47;99846.44;;;14.84;80.50
7168;BME280;3625;51.762;14.320;2023-03-23T08:57:27;99847.16;;;14.87;80.82
7168;BME280;3625;51.762;14.320;2023-03-23T09:00:20;99847.53;;;14.97;80.46
7168;BME280;3625;51.762;14.320;2023-03-23T09:03:04;99842.31;;;15.13;81.03
7168;BME280;3625;51.762;14.320;2023-03-23T09:05:57;99853.94;;;15.29;80.68
7168;BME280;3625;51.762;14.320;2023-03-23T09:08:34;99852.00;;;15.48;82.17
7168;BME280;3625;51.762;14.320;2023-03-23T09:11:05;99848.34;;;15.51;83.89
7168;BME280;3625;51.762;14.320;2023-03-23T09:13:34;99851.94;;;15.49;84.87
7168;BME280;3625;51.762;14.320;2023-03-23T09:16:03;99855.97;;;15.58;83.96
7168;BME280;3625;51.762;14.320;2023-03-23T09:18:31;99849.47;;;15.64;84.83
7168;BME280;3625;51.762;14.320;2023-03-23T09:21:00;99846.13;;;15.76;85.35
7168;BME280;3625;51.762;14.320;2023-03-23T09:23:28;99848.72;;;15.77;85.26
7168;BME280;3625;51.762;14.320;2023-03-23T09:25:59;99857.44;;;15.81;86.10
7168;BME280;3625;51.762;14.320;2023-03-23T09:28:26;99858.56;;;15.93;85.86
7168;BME280;3625;51.762;14.320;2023-03-23T09:30:55;99854.59;;;16.17;84.20
7168;BME280;3625;51.762;14.320;2023-03-23T09:33:24;99856.22;;;16.35;85.04
7168;BME280;3625;51.762;14.320;2023-03-23T09:35:52;99862.19;;;16.25;84.18
7168;BME280;3625;51.762;14.320;2023-03-23T09:38:20;99859.50;;;16.25;85.17
7168;BME280;3625;51.762;14.320;2023-03-23T09:40:49;99861.81;;;16.31;85.04
7168;BME280;3625;51.762;14.320;2023-03-23T09:46:24;99860.47;;;17.02;82.49
7168;BME280;3625;51.762;14.320;2023-03-23T09:48:56;99870.50;;;17.13;78.83
7168;BME280;3625;51.762;14.320;2023-03-23T09:51:37;99866.88;;;17.44;78.37
7168;BME280;3625;51.762;14.320;2023-03-23T09:54:13;99871.63;;;17.39;78.68
7168;BME280;3625;51.762;14.320;2023-03-23T09:56:41;99869.38;;;17.47;78.56
7168;BME280;3625;51.762;14.320;2023-03-23T09:59:17;99863.72;;;17.67;77.23
7168;BME280;3625;51.762;14.320;2023-03-23T10:01:50;99866.22;;;17.84;76.04
7168;BME280;3625;51.762;14.320;2023-03-23T10:04:30;99853.81;;;17.97;75.95
7168;BME280;3625;51.762;14.320;2023-03-23T10:07:05;99844.63;;;17.87;72.73
7168;BME280;3625;51.762;14.320;2023-03-23T10:09:36;99837.56;;;17.56;73.26
7168;BME280;3625;51.762;14.320;2023-03-23T10:12:10;99837.69;;;17.55;75.17
7168;BME280;3625;51.762;14.320;2023-03-23T10:15:07;99823.00;;;17.62;74.66
7168;BME280;3625;51.762;14.320;2023-03-23T10:17:42;99816.47;;;17.52;73.58
7168;BME280;3625;51.762;14.320;2023-03-23T10:20:32;99817.59;;;17.48;72.73
7168;BME280;3625;51.762;14.320;2023-03-23T10:25:53;99835.97;;;17.54;73.77
7168;BME280;3625;51.762;14.320;2023-03-23T10:28:36;99836.22;;;17.35;72.61
7168;BME280;3625;51.762;14.320;2023-03-23T10:31:11;99827.16;;;17.52;72.57
7168;BME280;3625;51.762;14.320;2023-03-23T10:33:42;99830.75;;;17.66;71.93
7168;BME280;3625;51.762;14.320;2023-03-23T10:36:14;99828.97;;;17.51;72.71
7168;BME280;3625;51.762;14.320;2023-03-23T10:38:49;99823.63;;;17.81;71.89
7168;BME280;3625;51.762;14.320;2023-03-23T10:41:19;99816.22;;;18.13;70.58
7168;BME280;3625;51.762;14.320;2023-03-23T10:43:48;99816.38;;;18.38;68.72
7168;BME280;3625;51.762;14.320;2023-03-23T10:46:27;99816.72;;;18.61;66.16
7168;BME280;3625;51.762;14.320;2023-03-23T10:48:59;99823.56;;;18.79;64.89
7168;BME280;3625;51.762;14.320;2023-03-23T10:51:34;99814.28;;;18.70;65.29
7168;BME280;3625;51.762;14.320;2023-03-23T10:54:04;99814.66;;;18.78;64.15
7168;BME280;3625;51.762;14.320;2023-03-23T10:56:36;99819.06;;;18.79;62.62
7168;BME280;3625;51.762;14.320;2023-03-23T10:59:13;99815.75;;;18.89;63.11
7168;BME280;3625;51.762;14.320;2023-03-23T11:01:45;99820.06;;;18.64;61.31
7168;BME280;3625;51.762;14.320;2023-03-23T11:04:16;99824.69;;;18.34;63.76
7168;BME280;3625;51.762;14.320;2023-03-23T11:06:46;99825.41;;;18.09;64.50
7168;BME280;3625;51.762;14.320;2023-03-23T11:09:18;99822.22;;;18.17;64.93
7168;BME280;3625;51.762;14.320;2023-03-23T11:11:50;99834.00;;;18.14;64.36
7168;BME280;3625;51.762;14.320;2023-03-23T11:14:23;99818.78;;;18.29;63.68
7168;BME280;3625;51.762;14.320;2023-03-23T11:16:54;99826.06;;;18.13;63.20
7168;BME280;3625;51.762;14.320;2023-03-23T11:19:24;99822.63;;;18.25;63.82
7168;BME280;3625;51.762;14.320;2023-03-23T11:21:53;99820.91;;;18.24;62.54
7168;BME280;3625;51.762;14.320;2023-03-23T11:24:23;99820.03;;;18.23;61.72
7168;BME280;3625;51.762;14.320;2023-03-23T11:26:52;99821.22;;;18.46;60.46
7168;BME280;3625;51.762;14.320;2023-03-23T11:29:23;99822.91;;;18.20;60.88
7168;BME280;3625;51.762;14.320;2023-03-23T11:32:03;99822.41;;;18.28;59.56
7168;BME280;3625;51.762;14.320;2023-03-23T11:34:35;99832.19;;;18.70;59.48
7168;BME280;3625;51.762;14.320;2023-03-23T11:37:06;99832.41;;;18.94;56.51
7168;BME280;3625;51.762;14.320;2023-03-23T11:39:47;99838.16;;;18.88;55.84
7168;BME280;3625;51.762;14.320;2023-03-23T11:42:20;99830.88;;;18.90;56.72
7168;BME280;3625;51.762;14.320;2023-03-23T11:44:48;99826.63;;;19.00;55.51
7168;BME280;3625;51.762;14.320;2023-03-23T11:47:22;99821.19;;;19.14;55.08
7168;BME280;3625;51.762;14.320;2023-03-23T11:50:03;99828.81;;;19.07;54.34
7168;BME280;3625;51.762;14.320;2023-03-23T11:52:38;99833.47;;;18.91;55.36
7168;BME280;3625;51.762;14.320;2023-03-23T11:55:14;99820.22;;;19.02;54.64
7168;BME280;3625;51.762;14.320;2023-03-23T11:57:43;99815.97;;;18.59;54.71
7168;BME280;3625;51.762;14.320;2023-03-23T12:00:14;99821.78;;;18.51;54.92
7168;BME280;3625;51.762;14.320;2023-03-23T12:05:56;99820.00;;;19.05;52.57
7168;BME280;3625;51.762;14.320;2023-03-23T12:08:44;99819.75;;;18.96;52.49
7168;BME280;3625;51.762;14.320;2023-03-23T12:11:19;99821.81;;;18.78;53.54
7168;BME280;3625;51.762;14.320;2023-03-23T12:14:03;99826.53;;;18.74;53.58
7168;BME280;3625;51.762;14.320;2023-03-23T12:16:57;99832.16;;;19.11;52.06
7168;BME280;3625;51.762;14.320;2023-03-23T12:19:34;99841.84;;;18.99;51.61
7168;BME280;3625;51.762;14.320;2023-03-23T12:22:12;99836.84;;;19.07;52.09
7168;BME280;3625;51.762;14.320;2023-03-23T12:24:54;99832.53;;;19.44;51.37
7168;BME280;3625;51.762;14.320;2023-03-23T12:27:29;99836.53;;;19.51;50.56
7168;BME280;3625;51.762;14.320;2023-03-23T12:30:30;99846.63;;;19.61;50.86
7168;BME280;3625;51.762;14.320;2023-03-23T12:33:09;99836.94;;;19.45;51.38
7168;BME280;3625;51.762;14.320;2023-03-23T12:35:49;99839.81;;;19.42;50.10
7168;BME280;3625;51.762;14.320;2023-03-23T12:38:42;99829.88;;;19.57;49.84
7168;BME280;3625;51.762;14.320;2023-03-23T12:41:16;99820.03;;;19.18;49.56
7168;BME280;3625;51.762;14.320;2023-03-23T12:43:50;99812.97;;;19.30;49.24
7168;BME280;3625;51.762;14.320;2023-03-23T12:46:29;99804.81;;;19.31;50.13
7168;BME280;3625;51.762;14.320;2023-03-23T12:49:03;99817.69;;;19.26;49.21
7168;BME280;3625;51.762;14.320;2023-03-23T12:51:37;99822.84;;;19.42;48.72
7168;BME280;3625;51.762;14.320;2023-03-23T12:54:14;99812.19;;;19.15;49.05
7168;BME280;3625;51.762;14.320;2023-03-23T12:56:51;99811.75;;;19.21;49.36
7168;BME280;3625;51.762;14.320;2023-03-23T12:59:24;99810.31;;;19.03;49.67
7168;BME280;3625;51.762;14.320;2023-03-23T13:01:57;99813.38;;;19.23;49.40
7168;BME280;3625;51.762;14.320;2023-03-23T13:04:30;99826.00;;;19.48;48.69
7168;BME280;3625;51.762;14.320;2023-03-23T13:07:03;99815.19;;;19.50;49.21
7168;BME280;3625;51.762;14.320;2023-03-23T13:09:46;99814.53;;;19.84;48.71
7168;BME280;3625;51.762;14.320;2023-03-23T13:12:16;99813.13;;;20.04;47.76
7168;BME280;3625;51.762;14.320;2023-03-23T13:14:52;99808.84;;;19.89;48.29
7168;BME280;3625;51.762;14.320;2023-03-23T13:17:33;99811.44;;;19.78;48.41
7168;BME280;3625;51.762;14.320;2023-03-23T13:20:18;99806.25;;;19.75;48.56
7168;BME280;3625;51.762;14.320;2023-03-23T13:22:56;99801.47;;;19.54;49.70
7168;BME280;3625;51.762;14.320;2023-03-23T13:25:47;99728.88;;;18.78;50.80
7168;BME280;3625;51.762;14.320;2023-03-23T13:28:17;99800.06;;;19.22;50.98
7168;BME280;3625;51.762;14.320;2023-03-23T13:30:54;99804.09;;;19.42;50.24
7168;BME280;3625;51.762;14.320;2023-03-23T13:33:23;99799.88;;;19.25;50.63
7168;BME280;3625;51.762;14.320;2023-03-23T13:35:51;99796.28;;;19.12;51.35
7168;BME280;3625;51.762;14.320;2023-03-23T13:38:25;99799.59;;;19.03;51.86
7168;BME280;3625;51.762;14.320;2023-03-23T13:40:55;99799.81;;;19.00;52.42
7168;BME280;3625;51.762;14.320;2023-03-23T13:43:29;99795.94;;;18.64;53.18
7168;BME280;3625;51.762;14.320;2023-03-23T13:46:08;99796.94;;;18.35;54.02
7168;BME280;3625;51.762;14.320;2023-03-23T13:48:43;99798.50;;;18.39;54.68
7168;BME280;3625;51.762;14.320;2023-03-23T13:51:32;99776.19;;;18.38;55.16
7168;BME280;3625;51.762;14.320;2023-03-23T13:54:19;99779.91;;;18.50;55.36
7168;BME280;3625;51.762;14.320;2023-03-23T13:56:54;99774.91;;;18.17;56.23
7168;BME280;3625;51.762;14.320;2023-03-23T13:59:33;99783.44;;;17.67;58.90
7168;BME280;3625;51.762;14.320;2023-03-23T14:02:27;99785.50;;;17.33;61.21
7168;BME280;3625;51.762;14.320;2023-03-23T14:04:56;99765.66;;;16.93;63.15